createdAt,value
2018-11-29T00:00:48.532Z,65.80
2018-11-29T00:03:16.916Z,65.70
2018-11-29T00:06:03.048Z,65.60
2018-11-29T00:08:32.780Z,65.50
2018-11-29T00:11:01.123Z,65.20
2018-11-29T00:13:29.432Z,64.90
2018-11-29T00:15:57.741Z,64.70
2018-11-29T00:18:26.056Z,64.40
2018-11-29T00:20:54.375Z,64.20
2018-11-29T00:23:22.732Z,64.10
2018-11-29T00:25:57.938Z,64.10
2018-11-29T00:28:26.748Z,64.10
2018-11-29T00:30:55.108Z,64.10
2018-11-29T00:33:23.431Z,63.90
2018-11-29T00:35:51.739Z,63.80
2018-11-29T00:38:20.132Z,63.60
2018-11-29T00:40:48.565Z,63.90
2018-11-29T00:43:16.907Z,66.00
2018-11-29T00:45:45.272Z,67.20
2018-11-29T00:48:13.608Z,67.40
2018-11-29T00:50:41.950Z,68.00
2018-11-29T00:53:10.249Z,68.10
2018-11-29T00:55:38.577Z,68.00
2018-11-29T00:58:06.896Z,68.10
2018-11-29T01:00:35.302Z,67.90
2018-11-29T01:03:03.685Z,67.70
2018-11-29T01:05:31.992Z,67.20
2018-11-29T01:08:00.375Z,67.00
2018-11-29T01:10:28.737Z,66.60
2018-11-29T01:12:57.124Z,65.70
2018-11-29T01:15:25.916Z,65.20
2018-11-29T01:17:54.559Z,64.80
2018-11-29T01:20:22.908Z,64.50
2018-11-29T01:22:51.249Z,64.40
2018-11-29T01:25:19.580Z,64.10
2018-11-29T01:27:49.636Z,64.00
2018-11-29T01:30:19.000Z,64.00
2018-11-29T01:32:47.423Z,63.90
2018-11-29T01:35:16.744Z,63.80
2018-11-29T01:37:45.088Z,63.60
2018-11-29T01:40:18.064Z,63.50
2018-11-29T01:42:48.389Z,63.50
2018-11-29T01:45:16.734Z,63.40
2018-11-29T01:47:45.074Z,63.40
2018-11-29T01:50:13.417Z,63.60
2018-11-29T01:52:42.176Z,63.80
2018-11-29T01:55:10.548Z,64.20
2018-11-29T01:57:38.871Z,64.40
2018-11-29T02:00:14.084Z,64.80
2018-11-29T02:02:42.605Z,65.20
2018-11-29T02:05:11.380Z,65.40
2018-11-29T02:07:39.728Z,65.40
2018-11-29T02:10:15.593Z,65.30
2018-11-29T02:12:44.023Z,65.30
2018-11-29T02:15:12.452Z,65.10
2018-11-29T02:17:40.827Z,64.70
2018-11-29T02:20:17.992Z,64.40
2018-11-29T02:22:46.780Z,64.20
2018-11-29T02:25:15.207Z,64.10
2018-11-29T02:27:43.569Z,63.90
2018-11-29T02:30:17.095Z,63.70
2018-11-29T02:32:45.576Z,63.60
2018-11-29T02:35:13.951Z,63.60
2018-11-29T02:37:42.331Z,63.50
2018-11-29T02:40:11.711Z,63.30
2018-11-29T02:42:40.304Z,63.00
2018-11-29T02:45:10.805Z,63.00
2018-11-29T02:47:39.195Z,63.00
2018-11-29T02:50:08.467Z,63.00
2018-11-29T02:52:36.845Z,63.10
2018-11-29T02:55:06.739Z,63.00
2018-11-29T02:57:35.281Z,63.00
2018-11-29T03:00:04.556Z,63.00
2018-11-29T03:02:32.941Z,63.00
2018-11-29T03:05:01.298Z,63.00
2018-11-29T03:07:29.676Z,63.20
2018-11-29T03:09:57.980Z,63.20
2018-11-29T03:12:26.299Z,63.30
2018-11-29T03:14:56.152Z,63.40
2018-11-29T03:17:24.485Z,63.40
2018-11-29T03:19:52.792Z,63.30
2018-11-29T03:22:21.149Z,63.30
2018-11-29T03:24:49.452Z,63.40
2018-11-29T03:27:17.769Z,63.50
2018-11-29T03:29:46.105Z,63.60
2018-11-29T03:32:14.471Z,63.80
2018-11-29T03:34:42.778Z,63.90
2018-11-29T03:37:11.177Z,64.00
2018-11-29T03:39:39.513Z,64.10
2018-11-29T03:42:08.193Z,64.30
2018-11-29T03:44:36.554Z,64.60
2018-11-29T03:47:05.040Z,64.90
2018-11-29T03:49:33.388Z,65.40
2018-11-29T03:52:01.749Z,65.80
2018-11-29T03:54:30.081Z,65.90
2018-11-29T03:56:58.412Z,66.00
2018-11-29T03:59:26.716Z,66.20
2018-11-29T04:01:55.156Z,66.40
2018-11-29T04:04:23.485Z,66.50
2018-11-29T04:06:51.810Z,66.60
2018-11-29T04:09:20.115Z,66.90
2018-11-29T04:11:48.484Z,67.10
2018-11-29T04:14:17.158Z,67.30
2018-11-29T04:16:45.484Z,67.00
2018-11-29T04:19:13.828Z,67.10
2018-11-29T04:21:42.140Z,67.40
2018-11-29T04:24:10.520Z,67.40
2018-11-29T04:26:38.856Z,65.20
2018-11-29T04:29:07.197Z,65.10
2018-11-29T04:31:35.581Z,65.30
2018-11-29T04:34:04.058Z,65.40
2018-11-29T04:36:32.435Z,66.10
2018-11-29T04:39:00.760Z,66.60
2018-11-29T04:41:29.119Z,67.20
2018-11-29T04:43:57.899Z,67.50
2018-11-29T04:46:40.331Z,68.00
2018-11-29T04:49:08.687Z,68.30
2018-11-29T04:51:37.117Z,68.50
2018-11-29T04:54:06.271Z,68.40
2018-11-29T04:56:34.654Z,68.30
2018-11-29T04:59:03.123Z,68.50
2018-11-29T05:01:31.512Z,68.70
2018-11-29T05:03:59.908Z,68.90
2018-11-29T05:06:28.220Z,69.00
2018-11-29T05:08:56.555Z,69.30
2018-11-29T05:11:24.931Z,69.60
2018-11-29T05:13:53.269Z,69.50
2018-11-29T05:16:21.632Z,69.30
2018-11-29T05:18:49.949Z,68.90
2018-11-29T05:21:18.315Z,68.70
2018-11-29T05:23:46.659Z,68.70
2018-11-29T05:26:15.116Z,68.60
2018-11-29T05:28:43.691Z,67.90
2018-11-29T05:31:12.024Z,67.50
2018-11-29T05:33:40.342Z,65.60
2018-11-29T05:36:08.680Z,65.30
2018-11-29T05:38:37.082Z,64.70
2018-11-29T05:41:06.180Z,64.40
2018-11-29T05:43:34.571Z,64.30
2018-11-29T05:46:02.913Z,64.50
2018-11-29T05:48:31.232Z,64.40
2018-11-29T05:50:59.567Z,64.60
2018-11-29T05:53:27.965Z,64.60
2018-11-29T05:55:59.377Z,64.50
2018-11-29T05:58:27.696Z,64.20
2018-11-29T06:00:56.768Z,64.00
2018-11-29T06:03:25.064Z,63.90
2018-11-29T06:05:53.380Z,64.00
2018-11-29T06:08:24.000Z,64.10
2018-11-29T06:10:52.316Z,64.40
2018-11-29T06:13:20.623Z,64.90
2018-11-29T06:15:48.985Z,66.10
2018-11-29T06:18:17.319Z,67.40
2018-11-29T06:20:45.676Z,68.10
2018-11-29T06:23:14.024Z,68.80
2018-11-29T06:25:42.403Z,69.10
2018-11-29T06:28:10.850Z,69.70
2018-11-29T06:30:39.203Z,69.90
2018-11-29T06:33:07.565Z,70.40
2018-11-29T06:35:35.865Z,70.60
2018-11-29T06:38:04.224Z,70.60
2018-11-29T06:40:32.586Z,70.70
2018-11-29T06:43:00.967Z,70.80
2018-11-29T06:45:29.284Z,70.80
2018-11-29T06:47:57.611Z,70.80
2018-11-29T06:50:25.986Z,70.50
2018-11-29T06:52:54.304Z,70.40
2018-11-29T06:55:23.396Z,70.00
2018-11-29T06:57:52.280Z,69.60
2018-11-29T07:00:25.234Z,69.20
2018-11-29T07:02:53.696Z,68.80
2018-11-29T07:05:22.045Z,68.10
2018-11-29T07:07:50.421Z,67.60
2018-11-29T07:10:24.644Z,67.30
2018-11-29T07:12:52.978Z,66.90
2018-11-29T07:15:22.368Z,66.60
2018-11-29T07:17:50.954Z,65.80
2018-11-29T07:20:19.268Z,65.00
2018-11-29T07:22:47.642Z,51.20
2018-11-29T07:25:16.028Z,46.20
2018-11-29T07:27:44.408Z,45.20
2018-11-29T07:30:18.101Z,43.30
2018-11-29T07:32:46.716Z,42.80
2018-11-29T07:35:15.909Z,41.50
2018-11-29T07:37:44.372Z,41.00
2018-11-29T07:40:17.850Z,40.80
2018-11-29T07:42:51.240Z,40.30
2018-11-29T07:45:20.991Z,40.00
2018-11-29T07:47:49.415Z,38.80
2018-11-29T07:50:19.710Z,38.50
2018-11-29T07:52:48.312Z,37.60
2018-11-29T07:55:19.455Z,37.30
2018-11-29T07:57:48.976Z,36.80
2018-11-29T08:00:18.138Z,37.00
2018-11-29T08:02:46.588Z,36.80
2018-11-29T08:05:15.523Z,36.80
2018-11-29T08:07:47.486Z,37.70
2018-11-29T08:10:15.668Z,38.00
2018-11-29T08:12:44.060Z,38.10
2018-11-29T08:15:13.530Z,38.80
2018-11-29T08:17:41.868Z,39.80
2018-11-29T08:20:18.101Z,40.00
2018-11-29T08:22:46.508Z,39.90
2018-11-29T08:25:14.856Z,40.20
2018-11-29T08:27:43.225Z,40.80
2018-11-29T08:30:13.508Z,41.70
2018-11-29T08:32:41.844Z,41.40
2018-11-29T08:35:11.103Z,41.90
2018-11-29T08:37:40.270Z,42.30
2018-11-29T08:40:12.544Z,42.60
2018-11-29T08:42:40.896Z,43.10
2018-11-29T08:45:10.316Z,44.30
2018-11-29T08:47:38.771Z,45.00
2018-11-29T08:50:10.272Z,46.60
2018-11-29T08:52:39.045Z,46.90
2018-11-29T08:55:09.526Z,47.90
2018-11-29T08:57:37.877Z,48.40
2018-11-29T09:00:10.993Z,49.00
2018-11-29T09:02:39.392Z,49.50
2018-11-29T09:05:08.686Z,49.60
2018-11-29T09:07:37.104Z,49.90
2018-11-29T09:10:07.665Z,50.00
2018-11-29T09:12:36.055Z,50.10
2018-11-29T09:15:05.240Z,50.20
2018-11-29T09:17:33.892Z,50.10
2018-11-29T09:20:02.240Z,50.30
2018-11-29T09:22:30.625Z,50.40
2018-11-29T09:24:58.970Z,50.60
2018-11-29T09:27:27.288Z,50.50
2018-11-29T09:29:55.676Z,50.50
2018-11-29T09:32:24.858Z,50.50
2018-11-29T09:34:53.198Z,50.50
2018-11-29T09:37:21.543Z,50.70
2018-11-29T09:39:49.937Z,50.70
2018-11-29T09:42:18.309Z,50.80
2018-11-29T09:44:46.653Z,50.70
2018-11-29T09:47:15.048Z,50.60
2018-11-29T09:49:43.413Z,50.60
2018-11-29T09:52:11.732Z,50.70
2018-11-29T09:54:40.075Z,50.90
2018-11-29T09:57:08.420Z,51.00
2018-11-29T09:59:36.754Z,51.30
2018-11-29T10:02:05.105Z,51.50
2018-11-29T10:04:33.484Z,51.80
2018-11-29T10:07:01.861Z,51.90
2018-11-29T10:09:30.244Z,51.90
2018-11-29T10:11:58.600Z,52.10
2018-11-29T10:14:27.052Z,52.20
2018-11-29T10:16:55.406Z,52.30
2018-11-29T10:19:23.721Z,52.40
2018-11-29T10:21:52.080Z,52.40
2018-11-29T10:24:20.442Z,52.50
2018-11-29T10:26:48.808Z,52.70
2018-11-29T10:29:17.096Z,52.60
2018-11-29T10:31:45.557Z,52.80
2018-11-29T10:34:13.905Z,52.80
2018-11-29T10:36:42.745Z,52.70
2018-11-29T10:39:11.659Z,52.70
2018-11-29T10:41:40.085Z,52.60
2018-11-29T10:44:14.589Z,52.70
2018-11-29T10:46:43.469Z,52.60
2018-11-29T10:49:11.859Z,52.40
2018-11-29T10:51:40.191Z,52.30
2018-11-29T10:54:08.514Z,52.30
2018-11-29T10:56:36.880Z,52.10
2018-11-29T10:59:05.618Z,51.90
2018-11-29T11:02:41.360Z,51.80
2018-11-29T11:05:09.712Z,51.70
2018-11-29T11:07:38.787Z,51.70
2018-11-29T11:10:06.597Z,51.60
2018-11-29T11:12:34.906Z,51.60
2018-11-29T11:15:03.357Z,51.60
2018-11-29T11:17:31.791Z,51.70
2018-11-29T11:20:00.122Z,51.70
2018-11-29T11:22:28.447Z,51.70
2018-11-29T11:24:56.824Z,51.80
2018-11-29T11:27:25.151Z,51.80
2018-11-29T11:29:53.504Z,51.80
2018-11-29T11:32:21.861Z,51.60
2018-11-29T11:34:50.179Z,51.70
2018-11-29T11:37:18.512Z,51.60
2018-11-29T11:39:46.884Z,51.60
2018-11-29T11:42:15.280Z,51.50
2018-11-29T11:44:43.624Z,51.40
2018-11-29T11:47:12.016Z,51.40
2018-11-29T11:49:40.398Z,51.20
2018-11-29T11:52:08.893Z,51.10
2018-11-29T11:54:37.138Z,50.90
2018-11-29T11:57:05.786Z,50.80
2018-11-29T11:59:34.153Z,50.60
2018-11-29T12:02:02.519Z,50.30
2018-11-29T12:04:30.853Z,50.20
2018-11-29T12:06:59.165Z,50.20
2018-11-29T12:09:27.548Z,50.10
2018-11-29T12:11:55.913Z,50.00
2018-11-29T12:14:24.257Z,50.00
2018-11-29T12:16:52.669Z,50.10
2018-11-29T12:19:21.049Z,50.20
2018-11-29T12:21:49.411Z,50.10
2018-11-29T12:24:17.861Z,50.10
2018-11-29T12:26:46.168Z,50.10
2018-11-29T12:29:14.491Z,50.10
2018-11-29T12:31:42.796Z,50.00
2018-11-29T12:34:11.140Z,50.00
2018-11-29T12:36:39.501Z,50.10
2018-11-29T12:39:09.378Z,50.20
2018-11-29T12:41:38.660Z,50.40
2018-11-29T12:44:07.090Z,50.40
2018-11-29T12:46:35.484Z,50.50
2018-11-29T12:49:03.897Z,50.50
2018-11-29T12:51:32.289Z,50.30
2018-11-29T12:54:00.649Z,50.20
2018-11-29T12:56:28.988Z,50.00
2018-11-29T12:58:57.360Z,49.90
2018-11-29T13:01:28.481Z,49.80
2018-11-29T13:04:00.281Z,49.60
2018-11-29T13:06:28.653Z,49.80
2018-11-29T13:09:06.459Z,49.80
2018-11-29T13:11:34.847Z,49.80
2018-11-29T13:14:03.272Z,49.70
2018-11-29T13:16:31.700Z,49.70
2018-11-29T13:19:00.139Z,49.50
2018-11-29T13:21:28.484Z,49.40
2018-11-29T13:24:00.189Z,49.30
2018-11-29T13:26:25.231Z,49.30
2018-11-29T13:28:53.969Z,49.20
2018-11-29T13:31:22.348Z,49.00
2018-11-29T13:33:50.704Z,49.10
2018-11-29T13:36:19.103Z,49.10
2018-11-29T13:38:47.456Z,49.20
2018-11-29T13:41:15.828Z,49.20
2018-11-29T13:43:44.209Z,49.30
2018-11-29T13:46:12.542Z,49.40
2018-11-29T13:48:40.929Z,49.50
2018-11-29T13:51:09.317Z,49.60
2018-11-29T13:53:37.701Z,49.70
2018-11-29T13:56:07.242Z,49.80
2018-11-29T13:58:35.640Z,49.90
2018-11-29T14:01:04.053Z,50.00
2018-11-29T14:03:32.434Z,49.90
2018-11-29T14:06:00.843Z,50.00
2018-11-29T14:08:29.882Z,50.00
2018-11-29T14:10:58.401Z,50.00
2018-11-29T14:13:26.888Z,49.90
2018-11-29T14:15:55.348Z,50.00
2018-11-29T14:18:23.679Z,50.10
2018-11-29T14:20:52.052Z,50.20
2018-11-29T14:23:20.496Z,50.50
2018-11-29T14:25:49.016Z,50.60
2018-11-29T14:28:17.491Z,50.90
2018-11-29T14:30:45.998Z,51.20
2018-11-29T14:33:14.436Z,51.50
2018-11-29T14:35:42.934Z,51.70
2018-11-29T14:38:15.213Z,51.70
2018-11-29T14:40:43.597Z,51.80
2018-11-29T14:43:11.973Z,51.80
2018-11-29T14:45:40.376Z,51.80
2018-11-29T14:48:08.868Z,51.70
2018-11-29T14:50:38.814Z,51.60
2018-11-29T14:53:09.711Z,51.60
2018-11-29T14:55:39.727Z,51.60
2018-11-29T14:58:10.061Z,51.60
2018-11-29T15:00:38.417Z,51.60
2018-11-29T15:03:12.057Z,51.60
2018-11-29T15:05:40.452Z,51.60
2018-11-29T15:08:09.469Z,51.60
2018-11-29T15:10:38.104Z,51.60
2018-11-29T15:13:08.020Z,51.60
2018-11-29T15:15:36.744Z,51.50
2018-11-29T15:18:05.587Z,51.50
2018-11-29T15:20:36.314Z,51.60
2018-11-29T15:23:05.070Z,51.70
2018-11-29T15:25:33.450Z,51.90
2018-11-29T15:28:01.855Z,52.60
2018-11-29T15:30:30.266Z,53.50
2018-11-29T15:32:58.827Z,54.20
2018-11-29T15:35:27.323Z,54.90
2018-11-29T15:37:55.780Z,55.70
2018-11-29T15:40:24.264Z,56.10
2018-11-29T15:42:52.758Z,56.70
2018-11-29T15:45:24.052Z,56.80
2018-11-29T15:47:52.412Z,57.00
2018-11-29T15:50:20.914Z,57.40
2018-11-29T15:52:49.648Z,57.60
2018-11-29T15:55:18.983Z,57.60
2018-11-29T15:57:48.260Z,57.70
2018-11-29T16:00:19.563Z,58.00
2018-11-29T16:02:48.388Z,58.20
2018-11-29T16:05:16.840Z,58.40
2018-11-29T16:07:45.311Z,58.60
2018-11-29T16:10:15.570Z,58.90
2018-11-29T16:12:43.951Z,59.20
2018-11-29T16:15:15.013Z,59.30
2018-11-29T16:17:44.162Z,59.50
2018-11-29T16:20:29.177Z,59.70
2018-11-29T16:22:57.567Z,59.70
2018-11-29T16:25:25.967Z,59.90
2018-11-29T16:27:54.313Z,59.90
2018-11-29T16:30:31.239Z,59.90
2018-11-29T16:33:01.458Z,60.00
2018-11-29T16:35:29.849Z,60.00
2018-11-29T16:37:58.250Z,60.00
2018-11-29T16:40:26.657Z,60.10
2018-11-29T16:42:54.971Z,60.20
2018-11-29T16:45:23.344Z,60.20
2018-11-29T16:47:51.728Z,60.30
2018-11-29T16:50:20.072Z,60.60
2018-11-29T16:52:55.198Z,60.90
2018-11-29T16:55:23.603Z,60.90
2018-11-29T16:57:53.764Z,60.90
2018-11-29T17:00:22.743Z,60.90
2018-11-29T17:02:51.320Z,60.80
2018-11-29T17:05:19.742Z,60.50
2018-11-29T17:07:48.187Z,60.00
2018-11-29T17:10:17.997Z,59.80
2018-11-29T17:12:48.126Z,59.50
2018-11-29T17:15:17.534Z,59.30
2018-11-29T17:17:46.021Z,59.00
2018-11-29T17:20:16.150Z,58.90
2018-11-29T17:22:45.312Z,58.80
2018-11-29T17:25:13.816Z,58.60
2018-11-29T17:27:42.242Z,58.40
2018-11-29T17:30:13.824Z,58.40
2018-11-29T17:32:42.512Z,58.60
2018-11-29T17:35:11.054Z,58.70
2018-11-29T17:37:39.456Z,58.90
2018-11-29T17:40:15.602Z,59.00
2018-11-29T17:42:44.048Z,59.40
2018-11-29T17:45:13.774Z,59.50
2018-11-29T17:47:43.022Z,59.60
2018-11-29T17:50:30.037Z,59.50
2018-11-29T17:52:58.642Z,59.50
2018-11-29T17:55:27.092Z,59.30
2018-11-29T17:57:55.571Z,59.10
2018-11-29T18:00:25.994Z,59.00
2018-11-29T18:02:54.526Z,59.00
2018-11-29T18:05:23.053Z,58.90
2018-11-29T18:07:51.514Z,58.80
2018-11-29T18:10:23.068Z,58.90
2018-11-29T18:12:53.082Z,58.90
2018-11-29T18:15:24.587Z,58.80
2018-11-29T18:17:52.961Z,58.70
2018-11-29T18:20:21.321Z,58.80
2018-11-29T18:22:49.721Z,58.90
2018-11-29T18:25:18.258Z,59.00
2018-11-29T18:27:48.927Z,59.30
2018-11-29T18:30:18.178Z,59.50
2018-11-29T18:32:46.602Z,59.60
2018-11-29T18:35:15.298Z,59.50
2018-11-29T18:37:43.920Z,59.50
2018-11-29T18:40:17.118Z,59.40
2018-11-29T18:42:46.739Z,59.40
2018-11-29T18:45:16.145Z,59.50
2018-11-29T18:47:45.328Z,59.40
2018-11-29T18:50:14.997Z,59.60
2018-11-29T18:52:43.460Z,59.60
2018-11-29T18:55:11.833Z,59.80
2018-11-29T18:57:40.357Z,59.80
2018-11-29T19:00:15.033Z,59.90
2018-11-29T19:02:43.672Z,60.00
2018-11-29T19:05:12.131Z,60.00
2018-11-29T19:07:40.623Z,60.10
2018-11-29T19:10:12.860Z,60.10
2018-11-29T19:12:43.087Z,60.30
2018-11-29T19:15:12.320Z,60.40
2018-11-29T19:17:40.713Z,60.60
2018-11-29T19:20:11.272Z,60.80
2018-11-29T19:22:39.825Z,60.90
2018-11-29T19:25:14.007Z,61.10
2018-11-29T19:27:41.772Z,61.20
2018-11-29T19:30:21.628Z,61.50
2018-11-29T19:32:52.796Z,61.70
2018-11-29T19:35:21.161Z,61.90
2018-11-29T19:37:49.535Z,62.20
2018-11-29T19:40:17.973Z,62.40
2018-11-29T19:42:46.345Z,62.60
2018-11-29T19:45:15.477Z,62.80
2018-11-29T19:47:44.125Z,63.00
2018-11-29T19:50:19.023Z,63.20
2018-11-29T19:52:50.819Z,63.40
2018-11-29T19:55:21.590Z,63.60
2018-11-29T19:57:50.020Z,63.80
2018-11-29T20:00:18.468Z,63.90
2018-11-29T20:02:48.360Z,64.00
2018-11-29T20:05:16.725Z,64.00
2018-11-29T20:07:45.124Z,64.00
2018-11-29T20:10:16.344Z,63.90
2018-11-29T20:12:45.592Z,64.00
2018-11-29T20:15:19.164Z,64.20
2018-11-29T20:17:47.648Z,64.50
2018-11-29T20:20:15.999Z,64.90
2018-11-29T20:22:44.447Z,65.30
2018-11-29T20:25:13.852Z,65.80
2018-11-29T20:27:42.337Z,66.10
2018-11-29T20:30:12.222Z,66.10
2018-11-29T20:32:40.748Z,66.00
2018-11-29T20:35:09.831Z,65.80
2018-11-29T20:37:38.393Z,65.50
2018-11-29T20:40:12.458Z,65.20
2018-11-29T20:42:40.860Z,64.90
2018-11-29T20:45:26.267Z,64.70
2018-11-29T20:47:54.723Z,64.50
2018-11-29T20:50:24.747Z,64.20
2018-11-29T20:52:54.111Z,64.10
2018-11-29T20:55:25.613Z,64.00
2018-11-29T20:57:54.063Z,63.80
2018-11-29T21:00:22.597Z,63.60
2018-11-29T21:02:51.620Z,63.50
2018-11-29T21:05:20.967Z,63.40
2018-11-29T21:07:51.856Z,63.30
2018-11-29T21:10:21.592Z,63.20
2018-11-29T21:12:49.986Z,63.10
2018-11-29T21:15:18.380Z,63.10
2018-11-29T21:17:46.797Z,63.20
2018-11-29T21:20:16.195Z,63.20
2018-11-29T21:22:45.840Z,63.30
2018-11-29T21:25:22.188Z,63.40
2018-11-29T21:27:50.783Z,63.60
2018-11-29T21:30:19.273Z,63.80
2018-11-29T21:32:48.064Z,64.00
2018-11-29T21:35:18.530Z,64.30
2018-11-29T21:37:48.410Z,64.50
2018-11-29T21:40:22.085Z,64.90
2018-11-29T21:42:50.444Z,65.40
2018-11-29T21:45:18.932Z,65.90
2018-11-29T21:47:47.384Z,66.90
2018-11-29T21:50:15.768Z,67.40
2018-11-29T21:52:44.186Z,67.90
2018-11-29T21:55:12.640Z,68.60
2018-11-29T21:57:41.037Z,69.10
2018-11-29T22:00:12.681Z,69.10
2018-11-29T22:02:42.846Z,69.10
2018-11-29T22:05:11.217Z,69.00
2018-11-29T22:07:39.650Z,69.20
2018-11-29T22:10:08.076Z,69.10
2018-11-29T22:12:36.439Z,69.00
2018-11-29T22:15:09.565Z,69.10
2018-11-29T22:17:46.793Z,69.10
2018-11-29T22:20:15.100Z,69.30
2018-11-29T22:22:43.445Z,69.30
2018-11-29T22:25:11.803Z,69.10
2018-11-29T22:27:40.173Z,68.90
2018-11-29T22:30:08.585Z,68.50
2018-11-29T22:32:40.071Z,68.30
2018-11-29T22:35:08.981Z,67.90
2018-11-29T22:37:37.452Z,67.60
2018-11-29T22:40:07.480Z,67.40
2018-11-29T22:42:35.852Z,67.30
2018-11-29T22:45:04.712Z,67.30
2018-11-29T22:47:33.051Z,67.30
2018-11-29T22:50:01.428Z,67.20
2018-11-29T22:52:29.976Z,67.10
2018-11-29T22:54:58.320Z,67.20
2018-11-29T22:57:26.696Z,67.20
2018-11-29T22:59:55.048Z,67.30
2018-11-29T23:02:23.449Z,67.50
2018-11-29T23:04:51.772Z,67.70
2018-11-29T23:07:20.091Z,67.80
2018-11-29T23:09:48.420Z,67.90
2018-11-29T23:12:21.292Z,68.10
2018-11-29T23:14:56.512Z,68.20
2018-11-29T23:17:24.848Z,68.20
2018-11-29T23:19:53.232Z,68.00
2018-11-29T23:22:21.595Z,67.90
2018-11-29T23:24:50.002Z,67.70
2018-11-29T23:27:18.379Z,67.50
2018-11-29T23:29:46.716Z,67.30
2018-11-29T23:32:15.064Z,67.20
2018-11-29T23:34:43.448Z,67.10
2018-11-29T23:37:11.804Z,67.00
2018-11-29T23:39:40.236Z,66.80
2018-11-29T23:42:08.621Z,66.80
2018-11-29T23:44:36.970Z,66.90
2018-11-29T23:47:05.558Z,67.10
2018-11-29T23:49:33.877Z,67.30
2018-11-29T23:52:02.215Z,67.60
2018-11-29T23:54:30.696Z,68.00
2018-11-29T23:56:59.099Z,68.40
2018-11-29T23:59:27.481Z,68.90
